sensor_id;sensor_type;location;lat;lon;timestamp;pressure;altitude;pressure_sealevel;temperature;humidity
49759;BME280;35654;46.080;11.118;2023-01-15T00:01:22;99825.69;;;1.69;91.93
49759;BME280;35654;46.080;11.118;2023-01-15T00:03:48;99827.69;;;1.73;91.69
49759;BME280;35654;46.080;11.118;2023-01-15T00:06:15;99828.97;;;1.71;91.60
49759;BME280;35654;46.080;11.118;2023-01-15T00:08:41;99824.41;;;1.71;91.62
49759;BME280;35654;46.080;11.118;2023-01-15T00:11:06;99823.59;;;1.71;91.41
49759;BME280;35654;46.080;11.118;2023-01-15T00:13:32;99823.22;;;1.67;91.22
49759;BME280;35654;46.080;11.118;2023-01-15T00:16:07;99820.59;;;1.61;91.42
49759;BME280;35654;46.080;11.118;2023-01-15T00:18:33;99816.88;;;1.62;91.66
49759;BME280;35654;46.080;11.118;2023-01-15T00:21:03;99816.38;;;1.65;91.14
49759;BME280;35654;46.080;11.118;2023-01-15T00:23:29;99815.94;;;1.68;91.33
49759;BME280;35654;46.080;11.118;2023-01-15T00:26:17;99805.75;;;1.70;90.75
49759;BME280;35654;46.080;11.118;2023-01-15T00:29:03;99814.91;;;1.69;90.62
49759;BME280;35654;46.080;11.118;2023-01-15T00:31:29;99808.66;;;1.68;90.72
49759;BME280;35654;46.080;11.118;2023-01-15T00:33:56;99809.50;;;1.69;90.36
49759;BME280;35654;46.080;11.118;2023-01-15T00:36:21;99803.72;;;1.65;90.38
49759;BME280;35654;46.080;11.118;2023-01-15T00:38:47;99795.63;;;1.65;90.71
49759;BME280;35654;46.080;11.118;2023-01-15T00:41:12;99790.09;;;1.60;90.80
49759;BME280;35654;46.080;11.118;2023-01-15T00:43:38;99787.91;;;1.51;90.58
49759;BME280;35654;46.080;11.118;2023-01-15T00:46:03;99782.50;;;1.51;91.24
49759;BME280;35654;46.080;11.118;2023-01-15T00:48:30;99788.88;;;1.56;91.18
49759;BME280;35654;46.080;11.118;2023-01-15T00:50:56;99790.09;;;1.60;91.32
49759;BME280;35654;46.080;11.118;2023-01-15T00:53:21;99784.00;;;1.65;90.67
49759;BME280;35654;46.080;11.118;2023-01-15T00:55:46;99794.34;;;1.68;90.47
49759;BME280;35654;46.080;11.118;2023-01-15T00:58:12;99795.41;;;1.67;90.68
49759;BME280;35654;46.080;11.118;2023-01-15T01:00:37;99787.75;;;1.64;90.35
49759;BME280;35654;46.080;11.118;2023-01-15T01:03:03;99790.91;;;1.61;90.73
49759;BME280;35654;46.080;11.118;2023-01-15T01:05:30;99777.56;;;1.66;90.44
49759;BME280;35654;46.080;11.118;2023-01-15T01:07:55;99779.44;;;1.65;90.34
49759;BME280;35654;46.080;11.118;2023-01-15T01:10:37;99783.19;;;1.64;90.63
49759;BME280;35654;46.080;11.118;2023-01-15T01:13:02;99775.44;;;1.68;90.20
49759;BME280;35654;46.080;11.118;2023-01-15T01:15:28;99784.31;;;1.75;89.72
49759;BME280;35654;46.080;11.118;2023-01-15T01:17:53;99782.19;;;1.77;89.53
49759;BME280;35654;46.080;11.118;2023-01-15T01:20:18;99784.06;;;1.76;89.78
49759;BME280;35654;46.080;11.118;2023-01-15T01:22:47;99777.47;;;1.72;89.95
49759;BME280;35654;46.080;11.118;2023-01-15T01:25:13;99776.19;;;1.75;89.76
49759;BME280;35654;46.080;11.118;2023-01-15T01:27:38;99782.06;;;1.72;89.95
49759;BME280;35654;46.080;11.118;2023-01-15T01:30:04;99779.09;;;1.73;90.30
49759;BME280;35654;46.080;11.118;2023-01-15T01:32:30;99770.81;;;1.75;89.85
49759;BME280;35654;46.080;11.118;2023-01-15T01:34:55;99776.28;;;1.68;90.18
49759;BME280;35654;46.080;11.118;2023-01-15T01:37:21;99770.75;;;1.63;90.63
49759;BME280;35654;46.080;11.118;2023-01-15T01:39:46;99759.94;;;1.63;90.86
49759;BME280;35654;46.080;11.118;2023-01-15T01:42:13;99760.97;;;1.62;91.24
49759;BME280;35654;46.080;11.118;2023-01-15T01:47:34;99755.59;;;1.62;91.67
49759;BME280;35654;46.080;11.118;2023-01-15T01:50:04;99759.13;;;1.63;91.95
49759;BME280;35654;46.080;11.118;2023-01-15T01:52:44;99758.75;;;1.59;91.76
49759;BME280;35654;46.080;11.118;2023-01-15T01:55:13;99753.59;;;1.58;91.92
49759;BME280;35654;46.080;11.118;2023-01-15T01:57:40;99747.59;;;1.56;92.04
49759;BME280;35654;46.080;11.118;2023-01-15T02:00:06;99741.88;;;1.64;91.75
49759;BME280;35654;46.080;11.118;2023-01-15T02:02:34;99726.06;;;1.67;91.62
49759;BME280;35654;46.080;11.118;2023-01-15T02:05:01;99733.91;;;1.69;91.56
49759;BME280;35654;46.080;11.118;2023-01-15T02:07:27;99740.00;;;1.64;91.33
49759;BME280;35654;46.080;11.118;2023-01-15T02:09:57;99730.63;;;1.67;91.60
49759;BME280;35654;46.080;11.118;2023-01-15T02:12:34;99731.13;;;1.75;90.74
49759;BME280;35654;46.080;11.118;2023-01-15T02:15:09;99721.50;;;1.80;90.72
49759;BME280;35654;46.080;11.118;2023-01-15T02:20:29;99718.31;;;1.71;90.80
49759;BME280;35654;46.080;11.118;2023-01-15T02:23:09;99712.66;;;1.61;91.16
49759;BME280;35654;46.080;11.118;2023-01-15T02:28:44;99704.72;;;1.77;90.63
49759;BME280;35654;46.080;11.118;2023-01-15T02:31:29;99705.69;;;1.83;90.34
49759;BME280;35654;46.080;11.118;2023-01-15T02:34:15;99704.16;;;1.87;90.54
49759;BME280;35654;46.080;11.118;2023-01-15T02:36:46;99695.84;;;1.89;89.88
49759;BME280;35654;46.080;11.118;2023-01-15T02:39:14;99688.78;;;1.88;89.74
49759;BME280;35654;46.080;11.118;2023-01-15T02:41:45;99695.84;;;1.89;89.95
49759;BME280;35654;46.080;11.118;2023-01-15T02:44:36;99684.78;;;1.90;89.38
49759;BME280;35654;46.080;11.118;2023-01-15T02:47:03;99682.34;;;1.89;89.25
49759;BME280;35654;46.080;11.118;2023-01-15T02:49:30;99684.00;;;1.90;88.85
49759;BME280;35654;46.080;11.118;2023-01-15T02:52:06;99684.31;;;1.93;88.97
49759;BME280;35654;46.080;11.118;2023-01-15T02:54:42;99671.28;;;1.90;89.17
49759;BME280;35654;46.080;11.118;2023-01-15T02:57:10;99673.19;;;1.90;89.50
49759;BME280;35654;46.080;11.118;2023-01-15T02:59:40;99672.94;;;1.91;89.55
49759;BME280;35654;46.080;11.118;2023-01-15T03:02:13;99666.13;;;1.89;89.31
49759;BME280;35654;46.080;11.118;2023-01-15T03:05:14;99661.56;;;1.89;89.12
49759;BME280;35654;46.080;11.118;2023-01-15T03:07:56;99655.34;;;1.89;89.03
49759;BME280;35654;46.080;11.118;2023-01-15T03:10:34;99658.88;;;1.89;88.69
49759;BME280;35654;46.080;11.118;2023-01-15T03:13:03;99647.00;;;1.90;88.85
49759;BME280;35654;46.080;11.118;2023-01-15T03:18:20;99654.50;;;1.88;89.30
49759;BME280;35654;46.080;11.118;2023-01-15T03:20:51;99646.66;;;1.87;89.42
49759;BME280;35654;46.080;11.118;2023-01-15T03:23:22;99642.41;;;1.91;89.22
49759;BME280;35654;46.080;11.118;2023-01-15T03:25:48;99632.56;;;1.96;88.80
49759;BME280;35654;46.080;11.118;2023-01-15T03:28:20;99635.25;;;1.96;88.78
49759;BME280;35654;46.080;11.118;2023-01-15T03:30:47;99638.31;;;2.00;88.69
49759;BME280;35654;46.080;11.118;2023-01-15T03:33:13;99642.31;;;1.97;88.54
49759;BME280;35654;46.080;11.118;2023-01-15T03:35:49;99636.47;;;2.00;88.79
49759;BME280;35654;46.080;11.118;2023-01-15T03:38:18;99629.97;;;2.01;88.61
49759;BME280;35654;46.080;11.118;2023-01-15T03:57:49;99605.81;;;1.95;88.45
49759;BME280;35654;46.080;11.118;2023-01-15T04:00:37;99598.88;;;1.99;88.41
49759;BME280;35654;46.080;11.118;2023-01-15T04:03:08;99598.06;;;1.87;88.82
49759;BME280;35654;46.080;11.118;2023-01-15T04:05:37;99602.25;;;1.83;89.55
49759;BME280;35654;46.080;11.118;2023-01-15T04:08:05;99595.34;;;1.87;89.16
49759;BME280;35654;46.080;11.118;2023-01-15T04:10:32;99582.66;;;1.87;89.39
49759;BME280;35654;46.080;11.118;2023-01-15T04:12:58;99585.84;;;1.84;89.27
49759;BME280;35654;46.080;11.118;2023-01-15T04:15:25;99586.88;;;1.83;89.16
49759;BME280;35654;46.080;11.118;2023-01-15T04:17:52;99589.09;;;1.74;89.39
49759;BME280;35654;46.080;11.118;2023-01-15T04:20:18;99573.84;;;1.80;89.15
49759;BME280;35654;46.080;11.118;2023-01-15T04:22:45;99561.03;;;1.87;89.05
49759;BME280;35654;46.080;11.118;2023-01-15T04:25:11;99557.88;;;1.90;89.09
49759;BME280;35654;46.080;11.118;2023-01-15T04:27:37;99561.41;;;1.91;88.57
49759;BME280;35654;46.080;11.118;2023-01-15T04:30:02;99556.72;;;1.86;88.18
49759;BME280;35654;46.080;11.118;2023-01-15T04:32:28;99561.19;;;1.92;88.46
49759;BME280;35654;46.080;11.118;2023-01-15T04:34:57;99550.50;;;1.97;88.07
49759;BME280;35654;46.080;11.118;2023-01-15T04:37:24;99537.56;;;1.99;88.07
49759;BME280;35654;46.080;11.118;2023-01-15T04:39:50;99534.31;;;1.97;88.33
49759;BME280;35654;46.080;11.118;2023-01-15T04:42:17;99540.63;;;1.91;88.45
49759;BME280;35654;46.080;11.118;2023-01-15T04:45:01;99541.94;;;1.89;89.03
49759;BME280;35654;46.080;11.118;2023-01-15T04:47:29;99536.53;;;1.77;89.53
49759;BME280;35654;46.080;11.118;2023-01-15T04:49:55;99531.34;;;1.87;89.19
49759;BME280;35654;46.080;11.118;2023-01-15T04:52:20;99540.75;;;1.96;88.87
49759;BME280;35654;46.080;11.118;2023-01-15T04:54:45;99533.59;;;2.02;88.57
49759;BME280;35654;46.080;11.118;2023-01-15T04:57:11;99525.38;;;2.08;88.39
49759;BME280;35654;46.080;11.118;2023-01-15T04:59:36;99521.47;;;2.04;88.41
49759;BME280;35654;46.080;11.118;2023-01-15T05:02:07;99527.59;;;2.11;88.50
49759;BME280;35654;46.080;11.118;2023-01-15T05:04:33;99528.75;;;2.15;88.09
49759;BME280;35654;46.080;11.118;2023-01-15T05:07:00;99519.03;;;2.14;87.84
49759;BME280;35654;46.080;11.118;2023-01-15T05:09:26;99517.16;;;2.03;88.12
49759;BME280;35654;46.080;11.118;2023-01-15T05:11:51;99518.09;;;1.97;88.64
49759;BME280;35654;46.080;11.118;2023-01-15T05:14:18;99513.53;;;2.09;88.48
49759;BME280;35654;46.080;11.118;2023-01-15T05:16:43;99517.84;;;2.10;88.14
49759;BME280;35654;46.080;11.118;2023-01-15T05:19:09;99509.06;;;2.15;87.78
49759;BME280;35654;46.080;11.118;2023-01-15T05:21:38;99525.38;;;2.20;87.25
49759;BME280;35654;46.080;11.118;2023-01-15T05:24:05;99510.09;;;2.25;87.06
49759;BME280;35654;46.080;11.118;2023-01-15T05:26:34;99514.19;;;2.28;87.09
49759;BME280;35654;46.080;11.118;2023-01-15T05:29:02;99512.19;;;2.23;87.86
49759;BME280;35654;46.080;11.118;2023-01-15T05:31:29;99527.34;;;2.24;87.97
49759;BME280;35654;46.080;11.118;2023-01-15T05:33:56;99529.47;;;2.22;87.92
49759;BME280;35654;46.080;11.118;2023-01-15T05:36:26;99547.44;;;2.28;87.62
49759;BME280;35654;46.080;11.118;2023-01-15T05:38:55;99537.94;;;2.26;88.01
49759;BME280;35654;46.080;11.118;2023-01-15T05:41:24;99533.56;;;2.25;88.38
49759;BME280;35654;46.080;11.118;2023-01-15T05:44:23;99521.84;;;2.19;88.73
49759;BME280;35654;46.080;11.118;2023-01-15T05:46:52;99514.66;;;2.13;88.77
49759;BME280;35654;46.080;11.118;2023-01-15T05:49:22;99509.75;;;2.10;88.69
49759;BME280;35654;46.080;11.118;2023-01-15T05:51:50;99503.53;;;1.98;88.64
49759;BME280;35654;46.080;11.118;2023-01-15T05:54:20;99497.53;;;1.96;89.12
49759;BME280;35654;46.080;11.118;2023-01-15T05:56:47;99491.09;;;1.97;89.60
49759;BME280;35654;46.080;11.118;2023-01-15T05:59:16;99490.00;;;2.10;89.25
49759;BME280;35654;46.080;11.118;2023-01-15T06:01:43;99482.63;;;2.17;89.01
49759;BME280;35654;46.080;11.118;2023-01-15T06:04:10;99485.41;;;2.22;88.78
49759;BME280;35654;46.080;11.118;2023-01-15T06:06:41;99485.06;;;2.18;88.83
49759;BME280;35654;46.080;11.118;2023-01-15T06:09:07;99474.59;;;2.22;88.54
49759;BME280;35654;46.080;11.118;2023-01-15T06:11:34;99475.44;;;2.22;88.46
49759;BME280;35654;46.080;11.118;2023-01-15T06:14:00;99467.06;;;2.24;88.19
49759;BME280;35654;46.080;11.118;2023-01-15T06:16:27;99471.44;;;2.25;87.96
49759;BME280;35654;46.080;11.118;2023-01-15T06:18:54;99457.94;;;2.25;87.94
49759;BME280;35654;46.080;11.118;2023-01-15T06:21:21;99456.91;;;2.14;88.02
49759;BME280;35654;46.080;11.118;2023-01-15T06:23:47;99458.06;;;2.07;88.67
49759;BME280;35654;46.080;11.118;2023-01-15T06:26:16;99450.13;;;2.00;88.74
49759;BME280;35654;46.080;11.118;2023-01-15T06:28:44;99448.47;;;1.99;89.74
49759;BME280;35654;46.080;11.118;2023-01-15T06:31:14;99450.69;;;1.91;90.67
49759;BME280;35654;46.080;11.118;2023-01-15T06:33:41;99451.44;;;1.86;91.36
49759;BME280;35654;46.080;11.118;2023-01-15T06:36:11;99440.84;;;1.96;90.87
49759;BME280;35654;46.080;11.118;2023-01-15T06:38:39;99442.69;;;2.07;90.83
49759;BME280;35654;46.080;11.118;2023-01-15T06:41:09;99448.19;;;2.12;90.83
49759;BME280;35654;46.080;11.118;2023-01-15T06:43:55;99453.50;;;2.07;90.39
49759;BME280;35654;46.080;11.118;2023-01-15T06:46:48;99456.94;;;1.91;90.68
49759;BME280;35654;46.080;11.118;2023-01-15T06:49:35;99446.47;;;1.95;91.43
49759;BME280;35654;46.080;11.118;2023-01-15T06:52:03;99443.53;;;2.08;90.74
49759;BME280;35654;46.080;11.118;2023-01-15T06:54:30;99442.22;;;2.10;90.56
49759;BME280;35654;46.080;11.118;2023-01-15T06:56:58;99444.53;;;2.18;90.01
49759;BME280;35654;46.080;11.118;2023-01-15T06:59:24;99451.50;;;2.14;89.19
49759;BME280;35654;46.080;11.118;2023-01-15T07:01:51;99446.41;;;2.18;88.89
49759;BME280;35654;46.080;11.118;2023-01-15T07:04:18;99436.31;;;2.25;88.61
49759;BME280;35654;46.080;11.118;2023-01-15T07:06:45;99440.88;;;2.24;88.31
49759;BME280;35654;46.080;11.118;2023-01-15T07:09:11;99436.34;;;2.13;88.59
49759;BME280;35654;46.080;11.118;2023-01-15T07:11:38;99447.72;;;2.15;88.90
49759;BME280;35654;46.080;11.118;2023-01-15T07:14:18;99438.19;;;2.24;88.54
49759;BME280;35654;46.080;11.118;2023-01-15T07:16:44;99429.59;;;2.27;88.54
49759;BME280;35654;46.080;11.118;2023-01-15T07:19:11;99433.34;;;2.26;88.79
49759;BME280;35654;46.080;11.118;2023-01-15T07:21:38;99419.72;;;2.33;88.52
49759;BME280;35654;46.080;11.118;2023-01-15T07:24:05;99420.91;;;2.37;88.53
49759;BME280;35654;46.080;11.118;2023-01-15T07:26:33;99415.81;;;2.41;88.10
49759;BME280;35654;46.080;11.118;2023-01-15T07:29:00;99415.00;;;2.40;87.93
49759;BME280;35654;46.080;11.118;2023-01-15T07:31:27;99406.78;;;2.35;87.96
49759;BME280;35654;46.080;11.118;2023-01-15T07:33:54;99403.38;;;2.40;87.76
49759;BME280;35654;46.080;11.118;2023-01-15T07:36:22;99413.59;;;2.38;88.08
49759;BME280;35654;46.080;11.118;2023-01-15T07:38:48;99403.50;;;2.33;88.66
49759;BME280;35654;46.080;11.118;2023-01-15T07:41:15;99398.69;;;2.35;88.76
49759;BME280;35654;46.080;11.118;2023-01-15T07:44:01;99406.78;;;2.35;88.26
49759;BME280;35654;46.080;11.118;2023-01-15T07:46:46;99411.63;;;2.33;88.25
49759;BME280;35654;46.080;11.118;2023-01-15T07:49:31;99417.72;;;2.40;87.95
49759;BME280;35654;46.080;11.118;2023-01-15T07:52:20;99422.28;;;2.40;87.99
49759;BME280;35654;46.080;11.118;2023-01-15T07:54:48;99407.09;;;2.50;87.67
49759;BME280;35654;46.080;11.118;2023-01-15T07:57:19;99405.78;;;2.53;87.92
49759;BME280;35654;46.080;11.118;2023-01-15T07:59:47;99410.56;;;2.62;87.49
49759;BME280;35654;46.080;11.118;2023-01-15T08:02:14;99409.91;;;2.72;87.26
49759;BME280;35654;46.080;11.118;2023-01-15T08:04:40;99407.13;;;2.67;86.77
49759;BME280;35654;46.080;11.118;2023-01-15T08:07:07;99412.75;;;2.65;86.10
49759;BME280;35654;46.080;11.118;2023-01-15T08:09:34;99411.13;;;2.64;85.87
49759;BME280;35654;46.080;11.118;2023-01-15T08:12:02;99403.94;;;2.70;85.91
49759;BME280;35654;46.080;11.118;2023-01-15T08:14:48;99394.88;;;2.76;85.55
49759;BME280;35654;46.080;11.118;2023-01-15T08:17:33;99392.94;;;2.76;84.77
49759;BME280;35654;46.080;11.118;2023-01-15T08:20:01;99395.66;;;2.76;84.77
49759;BME280;35654;46.080;11.118;2023-01-15T08:22:28;99389.53;;;2.81;84.64
49759;BME280;35654;46.080;11.118;2023-01-15T08:24:55;99393.16;;;2.86;84.54
49759;BME280;35654;46.080;11.118;2023-01-15T08:27:22;99404.22;;;3.02;84.28
49759;BME280;35654;46.080;11.118;2023-01-15T08:29:48;99394.97;;;2.98;83.76
49759;BME280;35654;46.080;11.118;2023-01-15T08:32:16;99383.47;;;2.90;84.11
49759;BME280;35654;46.080;11.118;2023-01-15T08:34:44;99390.78;;;2.90;84.09
49759;BME280;35654;46.080;11.118;2023-01-15T08:37:11;99401.13;;;2.93;83.76
49759;BME280;35654;46.080;11.118;2023-01-15T08:39:37;99403.13;;;2.86;84.34
49759;BME280;35654;46.080;11.118;2023-01-15T08:42:03;99387.16;;;2.84;84.48
49759;BME280;35654;46.080;11.118;2023-01-15T08:44:28;99394.53;;;2.89;84.69
49759;BME280;35654;46.080;11.118;2023-01-15T08:46:55;99396.00;;;2.97;84.54
49759;BME280;35654;46.080;11.118;2023-01-15T08:49:20;99397.19;;;3.01;84.40
49759;BME280;35654;46.080;11.118;2023-01-15T08:51:46;99400.59;;;3.13;84.44
49759;BME280;35654;46.080;11.118;2023-01-15T08:54:14;99404.38;;;2.95;83.44
49759;BME280;35654;46.080;11.118;2023-01-15T08:56:40;99402.22;;;2.80;85.28
49759;BME280;35654;46.080;11.118;2023-01-15T08:59:06;99395.00;;;2.69;85.83
49759;BME280;35654;46.080;11.118;2023-01-15T09:01:33;99395.34;;;2.73;85.22
49759;BME280;35654;46.080;11.118;2023-01-15T09:03:58;99389.75;;;2.79;84.96
49759;BME280;35654;46.080;11.118;2023-01-15T09:06:26;99382.25;;;2.81;85.09
49759;BME280;35654;46.080;11.118;2023-01-15T09:08:52;99375.28;;;3.02;83.83
49759;BME280;35654;46.080;11.118;2023-01-15T09:11:19;99380.69;;;3.02;83.96
49759;BME280;35654;46.080;11.118;2023-01-15T09:13:45;99377.41;;;3.17;83.23
49759;BME280;35654;46.080;11.118;2023-01-15T09:16:14;99368.78;;;3.36;82.41
49759;BME280;35654;46.080;11.118;2023-01-15T09:18:43;99371.72;;;3.51;82.04
49759;BME280;35654;46.080;11.118;2023-01-15T09:21:10;99370.97;;;3.56;81.99
49759;BME280;35654;46.080;11.118;2023-01-15T09:23:37;99373.41;;;3.58;81.31
49759;BME280;35654;46.080;11.118;2023-01-15T09:26:04;99376.56;;;3.49;81.11
49759;BME280;35654;46.080;11.118;2023-01-15T09:28:33;99363.66;;;3.18;83.09
49759;BME280;35654;46.080;11.118;2023-01-15T09:31:00;99360.69;;;3.20;82.92
49759;BME280;35654;46.080;11.118;2023-01-15T09:33:47;99357.81;;;3.43;82.21
49759;BME280;35654;46.080;11.118;2023-01-15T09:36:25;99352.50;;;3.53;81.71
49759;BME280;35654;46.080;11.118;2023-01-15T09:38:52;99345.72;;;3.50;81.76
49759;BME280;35654;46.080;11.118;2023-01-15T09:41:19;99354.34;;;3.47;81.62
49759;BME280;35654;46.080;11.118;2023-01-15T09:47:32;99340.47;;;3.82;79.86
49759;BME280;35654;46.080;11.118;2023-01-15T09:55:32;99337.75;;;4.04;79.13
49759;BME280;35654;46.080;11.118;2023-01-15T09:58:02;99328.78;;;4.03;78.36
49759;BME280;35654;46.080;11.118;2023-01-15T10:00:34;99321.28;;;4.10;78.70
49759;BME280;35654;46.080;11.118;2023-01-15T10:03:31;99323.94;;;4.05;78.10
49759;BME280;35654;46.080;11.118;2023-01-15T10:08:38;99301.88;;;4.19;77.68
49759;BME280;35654;46.080;11.118;2023-01-15T10:11:24;99283.19;;;4.22;77.27
49759;BME280;35654;46.080;11.118;2023-01-15T10:14:18;99279.63;;;4.43;77.05
49759;BME280;35654;46.080;11.118;2023-01-15T10:16:46;99281.63;;;4.26;76.91
49759;BME280;35654;46.080;11.118;2023-01-15T10:19:11;99272.75;;;4.09;77.43
49759;BME280;35654;46.080;11.118;2023-01-15T10:21:57;99268.44;;;3.86;78.32
49759;BME280;35654;46.080;11.118;2023-01-15T10:24:36;99260.16;;;3.71;78.97
49759;BME280;35654;46.080;11.118;2023-01-15T10:27:14;99261.38;;;4.07;78.01
49759;BME280;35654;46.080;11.118;2023-01-15T10:29:48;99243.28;;;4.13;77.49
49759;BME280;35654;46.080;11.118;2023-01-15T10:32:43;99244.38;;;4.43;76.32
49759;BME280;35654;46.080;11.118;2023-01-15T10:35:37;99231.38;;;4.45;75.18
49759;BME280;35654;46.080;11.118;2023-01-15T10:44:11;99221.69;;;4.91;73.62
49759;BME280;35654;46.080;11.118;2023-01-15T10:46:39;99213.75;;;4.80;73.34
49759;BME280;35654;46.080;11.118;2023-01-15T10:49:16;99216.13;;;5.18;71.77
49759;BME280;35654;46.080;11.118;2023-01-15T10:51:44;99211.78;;;5.17;70.84
49759;BME280;35654;46.080;11.118;2023-01-15T11:05:01;99184.44;;;4.77;72.43
49759;BME280;35654;46.080;11.118;2023-01-15T11:07:37;99183.28;;;5.19;70.73
49759;BME280;35654;46.080;11.118;2023-01-15T11:10:08;99177.84;;;5.14;70.26
49759;BME280;35654;46.080;11.118;2023-01-15T11:15:54;99158.44;;;5.53;69.37
49759;BME280;35654;46.080;11.118;2023-01-15T11:18:41;99161.50;;;5.81;68.56
49759;BME280;35654;46.080;11.118;2023-01-15T11:21:27;99149.09;;;6.06;67.46
49759;BME280;35654;46.080;11.118;2023-01-15T11:23:57;99149.09;;;6.36;66.32
49759;BME280;35654;46.080;11.118;2023-01-15T11:26:36;99149.34;;;6.44;65.68
49759;BME280;35654;46.080;11.118;2023-01-15T11:29:13;99144.72;;;6.50;65.13
49759;BME280;35654;46.080;11.118;2023-01-15T11:31:40;99144.16;;;6.43;65.27
49759;BME280;35654;46.080;11.118;2023-01-15T11:34:18;99135.47;;;6.21;65.49
49759;BME280;35654;46.080;11.118;2023-01-15T11:36:46;99130.59;;;6.08;66.00
49759;BME280;35654;46.080;11.118;2023-01-15T11:39:22;99139.03;;;6.11;66.09
49759;BME280;35654;46.080;11.118;2023-01-15T11:41:48;99138.94;;;5.81;66.83
49759;BME280;35654;46.080;11.118;2023-01-15T11:44:49;99138.66;;;5.67;67.10
49759;BME280;35654;46.080;11.118;2023-01-15T11:47:33;99134.13;;;5.11;68.71
49759;BME280;35654;46.080;11.118;2023-01-15T11:50:19;99128.81;;;4.74;69.82
49759;BME280;35654;46.080;11.118;2023-01-15T11:53:06;99122.72;;;5.04;69.59
49759;BME280;35654;46.080;11.118;2023-01-15T11:55:34;99123.56;;;5.14;68.82
49759;BME280;35654;46.080;11.118;2023-01-15T11:58:00;99125.03;;;5.47;67.51
49759;BME280;35654;46.080;11.118;2023-01-15T12:00:35;99106.84;;;5.53;66.83
49759;BME280;35654;46.080;11.118;2023-01-15T12:03:27;99104.09;;;5.38;67.43
49759;BME280;35654;46.080;11.118;2023-01-15T12:05:59;99108.69;;;5.32;67.68
49759;BME280;35654;46.080;11.118;2023-01-15T12:09:03;99106.00;;;5.47;67.10
49759;BME280;35654;46.080;11.118;2023-01-15T12:12:13;99100.88;;;5.56;67.22
49759;BME280;35654;46.080;11.118;2023-01-15T12:18:20;99101.19;;;5.74;66.23
49759;BME280;35654;46.080;11.118;2023-01-15T12:21:01;99078.09;;;5.72;66.55
49759;BME280;35654;46.080;11.118;2023-01-15T12:29:25;99063.66;;;5.61;66.56
49759;BME280;35654;46.080;11.118;2023-01-15T12:32:02;99063.69;;;5.81;65.53
49759;BME280;35654;46.080;11.118;2023-01-15T12:34:43;99060.44;;;5.74;65.70
49759;BME280;35654;46.080;11.118;2023-01-15T12:38:20;99058.78;;;5.78;65.49
49759;BME280;35654;46.080;11.118;2023-01-15T12:40:39;99054.78;;;5.86;65.39
49759;BME280;35654;46.080;11.118;2023-01-15T12:43:14;99037.66;;;5.85;64.96
49759;BME280;35654;46.080;11.118;2023-01-15T12:46:00;99040.59;;;5.69;66.54
49759;BME280;35654;46.080;11.118;2023-01-15T12:48:58;99030.81;;;5.68;65.99
49759;BME280;35654;46.080;11.118;2023-01-15T12:51:40;99026.75;;;5.70;65.96
49759;BME280;35654;46.080;11.118;2023-01-15T12:54:20;99019.16;;;5.77;65.18
49759;BME280;35654;46.080;11.118;2023-01-15T12:57:01;99008.28;;;5.93;64.59
49759;BME280;35654;46.080;11.118;2023-01-15T12:59:57;99003.91;;;5.81;64.14
49759;BME280;35654;46.080;11.118;2023-01-15T13:03:08;99001.47;;;5.70;65.47
49759;BME280;35654;46.080;11.118;2023-01-15T13:05:59;98993.91;;;5.72;65.48
49759;BME280;35654;46.080;11.118;2023-01-15T13:08:31;98986.28;;;5.64;66.09
49759;BME280;35654;46.080;11.118;2023-01-15T13:10:57;98974.03;;;5.61;66.47
49759;BME280;35654;46.080;11.118;2023-01-15T13:13:32;98980.84;;;5.54;66.54
49759;BME280;35654;46.080;11.118;2023-01-15T13:18:42;98975.69;;;5.27;67.61
49759;BME280;35654;46.080;11.118;2023-01-15T13:21:14;98974.28;;;5.19;68.75
49759;BME280;35654;46.080;11.118;2023-01-15T13:37:27;98965.38;;;5.44;67.26
49759;BME280;35654;46.080;11.118;2023-01-15T13:39:57;98956.94;;;5.46;67.45
49759;BME280;35654;46.080;11.118;2023-01-15T13:42:26;98962.91;;;5.53;67.85
49759;BME280;35654;46.080;11.118;2023-01-15T13:44:56;98963.19;;;5.56;67.69
49759;BME280;35654;46.080;11.118;2023-01-15T13:47:28;98961.03;;;5.58;67.45
49759;BME280;35654;46.080;11.118;2023-01-15T13:50:00;98959.94;;;5.44;67.66
49759;BME280;35654;46.080;11.118;2023-01-15T13:52:34;98961.81;;;5.23;68.62
49759;BME280;35654;46.080;11.118;2023-01-15T13:55:32;98963.72;;;5.28;68.79
49759;BME280;35654;46.080;11.118;2023-01-15T13:57:59;98968.63;;;5.16;68.98
49759;BME280;35654;46.080;11.118;2023-01-15T14:00:34;98959.91;;;5.14;69.15
49759;BME280;35654;46.080;11.118;2023-01-15T14:03:21;98958.28;;;5.23;69.71
49759;BME280;35654;46.080;11.118;2023-01-15T14:05:57;98959.94;;;5.24;69.48
49759;BME280;35654;46.080;11.118;2023-01-15T14:08:48;98947.72;;;5.16;69.76
49759;BME280;35654;46.080;11.118;2023-01-15T14:25:01;98948.75;;;5.00;71.48
49759;BME280;35654;46.080;11.118;2023-01-15T14:33:52;98940.63;;;4.85;71.86
49759;BME280;35654;46.080;11.118;2023-01-15T14:36:28;98937.03;;;4.75;72.47
49759;BME280;35654;46.080;11.118;2023-01-15T14:38:59;98924.03;;;4.77;71.52
49759;BME280;35654;46.080;11.118;2023-01-15T14:41:34;98924.88;;;4.77;71.31
49759;BME280;35654;46.080;11.118;2023-01-15T14:44:30;98924.03;;;4.72;71.46
49759;BME280;35654;46.080;11.118;2023-01-15T14:47:01;98918.91;;;4.80;70.89
49759;BME280;35654;46.080;11.118;2023-01-15T14:49:29;98916.44;;;4.84;71.26
49759;BME280;35654;46.080;11.118;2023-01-15T14:51:57;98910.19;;;4.78;71.72
49759;BME280;35654;46.080;11.118;2023-01-15T14:54:24;98906.69;;;4.83;72.10
49759;BME280;35654;46.080;11.118;2023-01-15T14:57:21;98906.97;;;4.86;72.22
49759;BME280;35654;46.080;11.118;2023-01-15T14:59:56;98904.78;;;4.83;72.07
49759;BME280;35654;46.080;11.118;2023-01-15T15:02:28;98902.34;;;4.77;72.33
49759;BME280;35654;46.080;11.118;2023-01-15T15:04:59;98904.47;;;4.69;71.80
49759;BME280;35654;46.080;11.118;2023-01-15T15:07:31;98912.91;;;4.73;72.15
49759;BME280;35654;46.080;11.118;2023-01-15T15:10:08;98905.84;;;4.67;71.23
49759;BME280;35654;46.080;11.118;2023-01-15T15:16:17;98906.34;;;4.54;71.69